sensor_id;sensor_type;location;lat;lon;timestamp;P1;durP1;ratioP1;P2;durP2;ratioP2
18387;SDS011;9320;50.256;19.026;2022-08-07T00:01:12;10.75;;;7.80;;
18387;SDS011;9320;50.256;19.026;2022-08-07T00:04:00;12.07;;;8.07;;
18387;SDS011;9320;50.256;19.026;2022-08-07T00:06:31;14.45;;;7.90;;
18387;SDS011;9320;50.256;19.026;2022-08-07T00:09:00;16.88;;;7.70;;
18387;SDS011;9320;50.256;19.026;2022-08-07T00:11:42;11.68;;;7.75;;
18387;SDS011;9320;50.256;19.026;2022-08-07T00:14:23;12.13;;;7.97;;
18387;SDS011;9320;50.256;19.026;2022-08-07T00:16:56;10.70;;;7.40;;
18387;SDS011;9320;50.256;19.026;2022-08-07T00:19:26;10.43;;;7.70;;
18387;SDS011;9320;50.256;19.026;2022-08-07T00:22:16;9.90;;;7.78;;
18387;SDS011;9320;50.256;19.026;2022-08-07T00:25:00;14.40;;;7.80;;
18387;SDS011;9320;50.256;19.026;2022-08-07T00:27:30;11.18;;;7.85;;
18387;SDS011;9320;50.256;19.026;2022-08-07T00:30:20;10.43;;;8.55;;
18387;SDS011;9320;50.256;19.026;2022-08-07T00:32:53;11.60;;;7.60;;
18387;SDS011;9320;50.256;19.026;2022-08-07T00:35:22;11.73;;;7.40;;
18387;SDS011;9320;50.256;19.026;2022-08-07T00:37:51;14.05;;;7.85;;
18387;SDS011;9320;50.256;19.026;2022-08-07T00:40:22;11.02;;;8.15;;
18387;SDS011;9320;50.256;19.026;2022-08-07T00:43:06;9.65;;;7.65;;
18387;SDS011;9320;50.256;19.026;2022-08-07T00:45:56;11.38;;;8.23;;
18387;SDS011;9320;50.256;19.026;2022-08-07T00:48:24;11.25;;;7.72;;
18387;SDS011;9320;50.256;19.026;2022-08-07T00:50:58;11.80;;;8.73;;
18387;SDS011;9320;50.256;19.026;2022-08-07T00:53:28;12.20;;;7.97;;
18387;SDS011;9320;50.256;19.026;2022-08-07T00:56:16;14.35;;;8.00;;
18387;SDS011;9320;50.256;19.026;2022-08-07T00:58:44;10.45;;;7.95;;
18387;SDS011;9320;50.256;19.026;2022-08-07T01:01:17;10.88;;;8.68;;
18387;SDS011;9320;50.256;19.026;2022-08-07T01:03:46;10.60;;;8.02;;
18387;SDS011;9320;50.256;19.026;2022-08-07T01:06:23;11.45;;;8.45;;
18387;SDS011;9320;50.256;19.026;2022-08-07T01:08:51;14.75;;;9.25;;
18387;SDS011;9320;50.256;19.026;2022-08-07T01:11:23;12.88;;;9.32;;
18387;SDS011;9320;50.256;19.026;2022-08-07T01:14:12;13.23;;;9.23;;
18387;SDS011;9320;50.256;19.026;2022-08-07T01:16:43;13.23;;;9.25;;
18387;SDS011;9320;50.256;19.026;2022-08-07T01:19:13;12.02;;;8.65;;
18387;SDS011;9320;50.256;19.026;2022-08-07T01:21:47;12.35;;;8.88;;
18387;SDS011;9320;50.256;19.026;2022-08-07T01:24:20;15.73;;;9.27;;
18387;SDS011;9320;50.256;19.026;2022-08-07T01:26:49;13.45;;;9.57;;
18387;SDS011;9320;50.256;19.026;2022-08-07T01:29:19;13.63;;;9.23;;
18387;SDS011;9320;50.256;19.026;2022-08-07T01:31:56;15.40;;;9.00;;
18387;SDS011;9320;50.256;19.026;2022-08-07T01:34:25;16.45;;;10.50;;
18387;SDS011;9320;50.256;19.026;2022-08-07T01:36:58;13.88;;;9.90;;
18387;SDS011;9320;50.256;19.026;2022-08-07T01:39:26;13.25;;;10.32;;
18387;SDS011;9320;50.256;19.026;2022-08-07T01:42:06;13.98;;;10.10;;
18387;SDS011;9320;50.256;19.026;2022-08-07T01:44:55;15.07;;;10.27;;
18387;SDS011;9320;50.256;19.026;2022-08-07T01:47:25;17.98;;;10.65;;
18387;SDS011;9320;50.256;19.026;2022-08-07T01:50:14;13.02;;;9.98;;
18387;SDS011;9320;50.256;19.026;2022-08-07T01:52:56;14.73;;;9.85;;
18387;SDS011;9320;50.256;19.026;2022-08-07T01:55:35;19.73;;;9.45;;
18387;SDS011;9320;50.256;19.026;2022-08-07T01:58:06;15.07;;;9.98;;
18387;SDS011;9320;50.256;19.026;2022-08-07T02:00:58;16.50;;;10.73;;
18387;SDS011;9320;50.256;19.026;2022-08-07T02:03:50;19.50;;;9.48;;
18387;SDS011;9320;50.256;19.026;2022-08-07T02:06:21;17.23;;;10.85;;
18387;SDS011;9320;50.256;19.026;2022-08-07T02:08:59;15.18;;;9.75;;
18387;SDS011;9320;50.256;19.026;2022-08-07T02:11:31;12.93;;;9.25;;
18387;SDS011;9320;50.256;19.026;2022-08-07T02:14:21;12.55;;;10.18;;
18387;SDS011;9320;50.256;19.026;2022-08-07T02:17:06;12.90;;;9.05;;
18387;SDS011;9320;50.256;19.026;2022-08-07T02:19:37;13.98;;;10.38;;
18387;SDS011;9320;50.256;19.026;2022-08-07T02:22:28;13.43;;;9.60;;
18387;SDS011;9320;50.256;19.026;2022-08-07T02:24:58;15.10;;;10.18;;
18387;SDS011;9320;50.256;19.026;2022-08-07T02:27:39;12.10;;;9.50;;
18387;SDS011;9320;50.256;19.026;2022-08-07T02:30:18;15.18;;;9.93;;
18387;SDS011;9320;50.256;19.026;2022-08-07T02:32:47;13.40;;;9.48;;
18387;SDS011;9320;50.256;19.026;2022-08-07T02:35:35;15.80;;;10.07;;
18387;SDS011;9320;50.256;19.026;2022-08-07T02:38:26;13.80;;;10.40;;
18387;SDS011;9320;50.256;19.026;2022-08-07T02:40:58;13.57;;;10.18;;
18387;SDS011;9320;50.256;19.026;2022-08-07T02:43:29;12.82;;;10.10;;
18387;SDS011;9320;50.256;19.026;2022-08-07T02:45:59;12.27;;;9.63;;
18387;SDS011;9320;50.256;19.026;2022-08-07T02:48:30;22.45;;;10.60;;
18387;SDS011;9320;50.256;19.026;2022-08-07T02:51:02;13.50;;;8.98;;
18387;SDS011;9320;50.256;19.026;2022-08-07T02:53:53;13.07;;;9.23;;
18387;SDS011;9320;50.256;19.026;2022-08-07T02:56:24;12.73;;;9.40;;
18387;SDS011;9320;50.256;19.026;2022-08-07T02:58:56;14.02;;;9.45;;
18387;SDS011;9320;50.256;19.026;2022-08-07T03:01:28;12.57;;;8.88;;
18387;SDS011;9320;50.256;19.026;2022-08-07T03:04:01;14.13;;;9.52;;
18387;SDS011;9320;50.256;19.026;2022-08-07T03:06:33;12.18;;;8.90;;
18387;SDS011;9320;50.256;19.026;2022-08-07T03:09:04;12.07;;;8.63;;
18387;SDS011;9320;50.256;19.026;2022-08-07T03:11:38;12.63;;;9.32;;
18387;SDS011;9320;50.256;19.026;2022-08-07T03:14:22;13.88;;;9.13;;
18387;SDS011;9320;50.256;19.026;2022-08-07T03:16:53;13.77;;;9.90;;
18387;SDS011;9320;50.256;19.026;2022-08-07T03:19:23;12.85;;;8.60;;
18387;SDS011;9320;50.256;19.026;2022-08-07T03:22:02;11.63;;;9.05;;
18387;SDS011;9320;50.256;19.026;2022-08-07T03:24:31;16.00;;;9.32;;
18387;SDS011;9320;50.256;19.026;2022-08-07T03:27:03;16.20;;;10.10;;
18387;SDS011;9320;50.256;19.026;2022-08-07T03:29:36;15.75;;;9.18;;
18387;SDS011;9320;50.256;19.026;2022-08-07T03:32:16;15.57;;;10.15;;
18387;SDS011;9320;50.256;19.026;2022-08-07T03:34:49;16.25;;;10.05;;
18387;SDS011;9320;50.256;19.026;2022-08-07T03:37:41;15.43;;;9.95;;
18387;SDS011;9320;50.256;19.026;2022-08-07T03:40:19;12.02;;;9.02;;
18387;SDS011;9320;50.256;19.026;2022-08-07T03:42:57;13.18;;;9.52;;
18387;SDS011;9320;50.256;19.026;2022-08-07T03:45:28;16.10;;;10.68;;
18387;SDS011;9320;50.256;19.026;2022-08-07T03:47:57;18.15;;;11.27;;
18387;SDS011;9320;50.256;19.026;2022-08-07T03:50:26;15.60;;;9.85;;
18387;SDS011;9320;50.256;19.026;2022-08-07T03:52:56;15.25;;;11.35;;
18387;SDS011;9320;50.256;19.026;2022-08-07T03:55:26;14.10;;;10.70;;
18387;SDS011;9320;50.256;19.026;2022-08-07T03:58:16;15.57;;;10.80;;
18387;SDS011;9320;50.256;19.026;2022-08-07T04:01:07;14.63;;;10.77;;
18387;SDS011;9320;50.256;19.026;2022-08-07T04:03:39;16.75;;;12.25;;
18387;SDS011;9320;50.256;19.026;2022-08-07T04:06:20;17.27;;;10.30;;
18387;SDS011;9320;50.256;19.026;2022-08-07T04:09:04;15.98;;;10.10;;
18387;SDS011;9320;50.256;19.026;2022-08-07T04:11:41;14.48;;;10.63;;
18387;SDS011;9320;50.256;19.026;2022-08-07T04:14:31;16.52;;;11.32;;
18387;SDS011;9320;50.256;19.026;2022-08-07T04:17:09;17.92;;;11.45;;
18387;SDS011;9320;50.256;19.026;2022-08-07T04:19:58;14.88;;;9.90;;
18387;SDS011;9320;50.256;19.026;2022-08-07T04:22:26;11.73;;;9.48;;
18387;SDS011;9320;50.256;19.026;2022-08-07T04:24:55;15.55;;;10.35;;
18387;SDS011;9320;50.256;19.026;2022-08-07T04:27:27;13.30;;;10.68;;
18387;SDS011;9320;50.256;19.026;2022-08-07T04:30:03;18.48;;;9.90;;
18387;SDS011;9320;50.256;19.026;2022-08-07T04:32:46;16.67;;;10.48;;
18387;SDS011;9320;50.256;19.026;2022-08-07T04:35:23;12.65;;;9.88;;
18387;SDS011;9320;50.256;19.026;2022-08-07T04:37:53;14.57;;;9.68;;
18387;SDS011;9320;50.256;19.026;2022-08-07T04:40:32;15.70;;;10.23;;
18387;SDS011;9320;50.256;19.026;2022-08-07T04:43:09;13.55;;;10.13;;
18387;SDS011;9320;50.256;19.026;2022-08-07T04:45:42;15.75;;;9.45;;
18387;SDS011;9320;50.256;19.026;2022-08-07T04:48:29;16.23;;;10.88;;
18387;SDS011;9320;50.256;19.026;2022-08-07T04:51:13;15.18;;;9.38;;
18387;SDS011;9320;50.256;19.026;2022-08-07T04:53:59;14.20;;;8.98;;
18387;SDS011;9320;50.256;19.026;2022-08-07T04:56:36;14.00;;;9.65;;
18387;SDS011;9320;50.256;19.026;2022-08-07T04:59:31;12.32;;;9.10;;
18387;SDS011;9320;50.256;19.026;2022-08-07T05:02:25;12.25;;;9.63;;
18387;SDS011;9320;50.256;19.026;2022-08-07T05:04:59;12.68;;;9.43;;
18387;SDS011;9320;50.256;19.026;2022-08-07T05:07:53;15.55;;;9.55;;
18387;SDS011;9320;50.256;19.026;2022-08-07T05:10:27;18.02;;;9.93;;
18387;SDS011;9320;50.256;19.026;2022-08-07T05:13:02;12.43;;;9.02;;
18387;SDS011;9320;50.256;19.026;2022-08-07T05:15:55;15.60;;;10.20;;
18387;SDS011;9320;50.256;19.026;2022-08-07T05:18:33;14.60;;;10.20;;
18387;SDS011;9320;50.256;19.026;2022-08-07T05:21:07;12.95;;;9.50;;
18387;SDS011;9320;50.256;19.026;2022-08-07T05:23:40;15.95;;;10.55;;
18387;SDS011;9320;50.256;19.026;2022-08-07T05:26:15;16.80;;;10.88;;
18387;SDS011;9320;50.256;19.026;2022-08-07T05:28:50;14.50;;;9.77;;
18387;SDS011;9320;50.256;19.026;2022-08-07T05:31:21;12.63;;;9.52;;
18387;SDS011;9320;50.256;19.026;2022-08-07T05:34:04;13.43;;;9.85;;
18387;SDS011;9320;50.256;19.026;2022-08-07T05:36:37;12.07;;;8.40;;
18387;SDS011;9320;50.256;19.026;2022-08-07T05:39:06;13.75;;;9.90;;
18387;SDS011;9320;50.256;19.026;2022-08-07T05:41:55;17.15;;;9.40;;
18387;SDS011;9320;50.256;19.026;2022-08-07T05:44:30;10.60;;;8.30;;
18387;SDS011;9320;50.256;19.026;2022-08-07T05:47:06;12.10;;;9.65;;
18387;SDS011;9320;50.256;19.026;2022-08-07T05:49:45;16.33;;;9.32;;
18387;SDS011;9320;50.256;19.026;2022-08-07T05:52:15;13.40;;;8.73;;
18387;SDS011;9320;50.256;19.026;2022-08-07T05:54:45;15.60;;;9.25;;
18387;SDS011;9320;50.256;19.026;2022-08-07T05:57:22;12.65;;;8.35;;
18387;SDS011;9320;50.256;19.026;2022-08-07T05:59:55;16.23;;;9.02;;
18387;SDS011;9320;50.256;19.026;2022-08-07T06:02:27;14.68;;;8.45;;
18387;SDS011;9320;50.256;19.026;2022-08-07T06:05:01;13.77;;;8.43;;
18387;SDS011;9320;50.256;19.026;2022-08-07T06:07:32;12.25;;;7.45;;
18387;SDS011;9320;50.256;19.026;2022-08-07T06:10:21;12.90;;;7.90;;
18387;SDS011;9320;50.256;19.026;2022-08-07T06:12:49;12.82;;;8.00;;
18387;SDS011;9320;50.256;19.026;2022-08-07T06:15:19;9.82;;;7.45;;
18387;SDS011;9320;50.256;19.026;2022-08-07T06:18:07;11.90;;;8.18;;
18387;SDS011;9320;50.256;19.026;2022-08-07T06:20:41;13.07;;;9.35;;
18387;SDS011;9320;50.256;19.026;2022-08-07T06:23:31;13.32;;;8.05;;
18387;SDS011;9320;50.256;19.026;2022-08-07T06:26:19;14.32;;;9.07;;
18387;SDS011;9320;50.256;19.026;2022-08-07T06:28:53;12.63;;;9.23;;
18387;SDS011;9320;50.256;19.026;2022-08-07T06:31:24;12.48;;;9.02;;
18387;SDS011;9320;50.256;19.026;2022-08-07T06:34:13;11.07;;;7.35;;
18387;SDS011;9320;50.256;19.026;2022-08-07T06:36:47;13.18;;;8.90;;
18387;SDS011;9320;50.256;19.026;2022-08-07T06:39:17;13.10;;;8.48;;
18387;SDS011;9320;50.256;19.026;2022-08-07T06:42:06;12.00;;;8.10;;
18387;SDS011;9320;50.256;19.026;2022-08-07T06:44:38;12.52;;;8.02;;
18387;SDS011;9320;50.256;19.026;2022-08-07T06:47:07;14.35;;;8.40;;
18387;SDS011;9320;50.256;19.026;2022-08-07T06:49:40;10.95;;;6.97;;
18387;SDS011;9320;50.256;19.026;2022-08-07T06:52:25;11.57;;;7.82;;
18387;SDS011;9320;50.256;19.026;2022-08-07T06:55:02;11.52;;;6.93;;
18387;SDS011;9320;50.256;19.026;2022-08-07T06:57:52;13.02;;;7.47;;
18387;SDS011;9320;50.256;19.026;2022-08-07T07:00:25;13.02;;;7.60;;
18387;SDS011;9320;50.256;19.026;2022-08-07T07:02:55;9.68;;;7.43;;
18387;SDS011;9320;50.256;19.026;2022-08-07T07:05:26;12.48;;;7.43;;
18387;SDS011;9320;50.256;19.026;2022-08-07T07:08:16;12.27;;;7.80;;
18387;SDS011;9320;50.256;19.026;2022-08-07T07:10:51;9.75;;;6.55;;
18387;SDS011;9320;50.256;19.026;2022-08-07T07:13:25;11.05;;;6.82;;
18387;SDS011;9320;50.256;19.026;2022-08-07T07:16:18;12.38;;;6.22;;
18387;SDS011;9320;50.256;19.026;2022-08-07T07:18:56;7.38;;;5.82;;
18387;SDS011;9320;50.256;19.026;2022-08-07T07:21:49;13.55;;;6.40;;
18387;SDS011;9320;50.256;19.026;2022-08-07T07:24:39;10.57;;;6.35;;
18387;SDS011;9320;50.256;19.026;2022-08-07T07:27:30;10.38;;;6.30;;
18387;SDS011;9320;50.256;19.026;2022-08-07T07:30:23;8.38;;;5.78;;
18387;SDS011;9320;50.256;19.026;2022-08-07T07:33:05;8.88;;;6.25;;
18387;SDS011;9320;50.256;19.026;2022-08-07T07:35:38;8.73;;;5.68;;
18387;SDS011;9320;50.256;19.026;2022-08-07T07:38:20;10.85;;;6.30;;
18387;SDS011;9320;50.256;19.026;2022-08-07T07:40:53;8.50;;;6.20;;
18387;SDS011;9320;50.256;19.026;2022-08-07T07:43:28;11.40;;;6.10;;
18387;SDS011;9320;50.256;19.026;2022-08-07T07:46:18;8.38;;;5.25;;
18387;SDS011;9320;50.256;19.026;2022-08-07T07:49:08;9.27;;;5.22;;
18387;SDS011;9320;50.256;19.026;2022-08-07T07:51:58;8.13;;;4.80;;
18387;SDS011;9320;50.256;19.026;2022-08-07T07:54:28;9.70;;;4.60;;
18387;SDS011;9320;50.256;19.026;2022-08-07T07:57:02;9.65;;;5.10;;
18387;SDS011;9320;50.256;19.026;2022-08-07T07:59:33;13.65;;;5.78;;
18387;SDS011;9320;50.256;19.026;2022-08-07T08:02:19;9.30;;;5.78;;
18387;SDS011;9320;50.256;19.026;2022-08-07T08:05:01;8.60;;;5.00;;
18387;SDS011;9320;50.256;19.026;2022-08-07T08:07:39;8.13;;;5.40;;
18387;SDS011;9320;50.256;19.026;2022-08-07T08:10:26;10.93;;;5.70;;
18387;SDS011;9320;50.256;19.026;2022-08-07T08:13:06;8.93;;;5.53;;
18387;SDS011;9320;50.256;19.026;2022-08-07T08:15:41;9.35;;;5.85;;
18387;SDS011;9320;50.256;19.026;2022-08-07T08:18:24;10.68;;;5.60;;
18387;SDS011;9320;50.256;19.026;2022-08-07T08:20:54;9.30;;;5.40;;
18387;SDS011;9320;50.256;19.026;2022-08-07T08:23:27;8.32;;;5.30;;
18387;SDS011;9320;50.256;19.026;2022-08-07T08:26:17;12.30;;;5.40;;
18387;SDS011;9320;50.256;19.026;2022-08-07T08:29:06;9.25;;;5.28;;
18387;SDS011;9320;50.256;19.026;2022-08-07T08:31:37;12.70;;;5.35;;
18387;SDS011;9320;50.256;19.026;2022-08-07T08:34:27;6.40;;;4.45;;
18387;SDS011;9320;50.256;19.026;2022-08-07T08:36:58;8.88;;;4.85;;
18387;SDS011;9320;50.256;19.026;2022-08-07T08:39:35;9.63;;;4.60;;
18387;SDS011;9320;50.256;19.026;2022-08-07T08:42:21;9.55;;;4.57;;
18387;SDS011;9320;50.256;19.026;2022-08-07T08:44:57;7.43;;;4.93;;
18387;SDS011;9320;50.256;19.026;2022-08-07T08:47:40;7.13;;;4.63;;
18387;SDS011;9320;50.256;19.026;2022-08-07T08:50:20;6.20;;;4.13;;
18387;SDS011;9320;50.256;19.026;2022-08-07T08:53:05;8.60;;;5.00;;
18387;SDS011;9320;50.256;19.026;2022-08-07T08:55:43;10.52;;;5.47;;
18387;SDS011;9320;50.256;19.026;2022-08-07T08:58:26;12.30;;;4.85;;
18387;SDS011;9320;50.256;19.026;2022-08-07T09:01:04;8.32;;;4.60;;
18387;SDS011;9320;50.256;19.026;2022-08-07T09:03:43;8.13;;;4.65;;
18387;SDS011;9320;50.256;19.026;2022-08-07T09:06:25;9.88;;;5.72;;
18387;SDS011;9320;50.256;19.026;2022-08-07T09:09:03;12.80;;;5.70;;
18387;SDS011;9320;50.256;19.026;2022-08-07T09:11:57;7.95;;;4.65;;
18387;SDS011;9320;50.256;19.026;2022-08-07T09:14:55;7.97;;;5.60;;
18387;SDS011;9320;50.256;19.026;2022-08-07T09:17:55;8.27;;;4.47;;
18387;SDS011;9320;50.256;19.026;2022-08-07T09:20:50;7.88;;;4.47;;
18387;SDS011;9320;50.256;19.026;2022-08-07T09:23:31;5.25;;;3.70;;
18387;SDS011;9320;50.256;19.026;2022-08-07T09:26:30;7.65;;;3.90;;
18387;SDS011;9320;50.256;19.026;2022-08-07T09:29:16;8.45;;;4.50;;
18387;SDS011;9320;50.256;19.026;2022-08-07T09:32:12;8.90;;;4.47;;
18387;SDS011;9320;50.256;19.026;2022-08-07T09:34:57;6.13;;;4.07;;
18387;SDS011;9320;50.256;19.026;2022-08-07T09:37:55;6.93;;;4.03;;
18387;SDS011;9320;50.256;19.026;2022-08-07T09:40:36;4.93;;;2.72;;
18387;SDS011;9320;50.256;19.026;2022-08-07T09:43:19;7.55;;;2.80;;
18387;SDS011;9320;50.256;19.026;2022-08-07T09:46:18;5.35;;;2.85;;
18387;SDS011;9320;50.256;19.026;2022-08-07T09:49:24;6.18;;;3.08;;
18387;SDS011;9320;50.256;19.026;2022-08-07T09:52:28;10.10;;;2.80;;
18387;SDS011;9320;50.256;19.026;2022-08-07T09:55:03;4.82;;;2.80;;
18387;SDS011;9320;50.256;19.026;2022-08-07T09:58:13;8.10;;;3.30;;
18387;SDS011;9320;50.256;19.026;2022-08-07T10:01:05;5.72;;;3.20;;
18387;SDS011;9320;50.256;19.026;2022-08-07T10:04:17;4.25;;;2.60;;
18387;SDS011;9320;50.256;19.026;2022-08-07T10:07:04;4.20;;;3.00;;
18387;SDS011;9320;50.256;19.026;2022-08-07T10:10:16;6.22;;;3.05;;
18387;SDS011;9320;50.256;19.026;2022-08-07T10:16:23;4.05;;;2.45;;
18387;SDS011;9320;50.256;19.026;2022-08-07T10:19:14;4.93;;;2.50;;
18387;SDS011;9320;50.256;19.026;2022-08-07T10:21:57;3.03;;;2.15;;
18387;SDS011;9320;50.256;19.026;2022-08-07T10:24:46;3.88;;;2.20;;
18387;SDS011;9320;50.256;19.026;2022-08-07T10:27:28;4.35;;;2.22;;
18387;SDS011;9320;50.256;19.026;2022-08-07T10:30:13;4.72;;;2.80;;
18387;SDS011;9320;50.256;19.026;2022-08-07T10:35:51;4.32;;;2.38;;
18387;SDS011;9320;50.256;19.026;2022-08-07T10:38:38;5.47;;;2.33;;
18387;SDS011;9320;50.256;19.026;2022-08-07T10:41:18;3.45;;;2.03;;
18387;SDS011;9320;50.256;19.026;2022-08-07T10:44:16;4.25;;;1.73;;
18387;SDS011;9320;50.256;19.026;2022-08-07T10:47:04;5.13;;;2.10;;
18387;SDS011;9320;50.256;19.026;2022-08-07T10:50:07;5.40;;;2.40;;
18387;SDS011;9320;50.256;19.026;2022-08-07T10:52:46;6.45;;;2.80;;
18387;SDS011;9320;50.256;19.026;2022-08-07T10:55:23;7.03;;;3.00;;
18387;SDS011;9320;50.256;19.026;2022-08-07T10:58:22;4.95;;;2.55;;
18387;SDS011;9320;50.256;19.026;2022-08-07T11:01:16;6.00;;;2.63;;
18387;SDS011;9320;50.256;19.026;2022-08-07T11:04:14;3.78;;;2.53;;
18387;SDS011;9320;50.256;19.026;2022-08-07T11:07:03;8.90;;;2.53;;
18387;SDS011;9320;50.256;19.026;2022-08-07T11:09:57;4.88;;;2.70;;
18387;SDS011;9320;50.256;19.026;2022-08-07T11:12:37;5.47;;;2.47;;
18387;SDS011;9320;50.256;19.026;2022-08-07T11:15:16;4.60;;;1.83;;
18387;SDS011;9320;50.256;19.026;2022-08-07T11:17:59;2.92;;;1.90;;
18387;SDS011;9320;50.256;19.026;2022-08-07T11:20:36;6.28;;;2.75;;
18387;SDS011;9320;50.256;19.026;2022-08-07T11:23:13;4.50;;;2.47;;
18387;SDS011;9320;50.256;19.026;2022-08-07T11:25:57;4.72;;;2.28;;
18387;SDS011;9320;50.256;19.026;2022-08-07T11:28:33;5.20;;;2.50;;
18387;SDS011;9320;50.256;19.026;2022-08-07T11:31:09;4.43;;;2.80;;
18387;SDS011;9320;50.256;19.026;2022-08-07T11:33:50;5.55;;;2.50;;
18387;SDS011;9320;50.256;19.026;2022-08-07T11:39:31;3.30;;;2.10;;
18387;SDS011;9320;50.256;19.026;2022-08-07T11:42:29;3.40;;;1.90;;
18387;SDS011;9320;50.256;19.026;2022-08-07T11:45:09;2.95;;;2.30;;
18387;SDS011;9320;50.256;19.026;2022-08-07T11:48:04;3.17;;;2.00;;
18387;SDS011;9320;50.256;19.026;2022-08-07T11:51:01;3.22;;;2.10;;
18387;SDS011;9320;50.256;19.026;2022-08-07T11:54:12;4.25;;;2.08;;
18387;SDS011;9320;50.256;19.026;2022-08-07T11:56:56;5.18;;;2.30;;
18387;SDS011;9320;50.256;19.026;2022-08-07T11:59:46;4.28;;;2.20;;
18387;SDS011;9320;50.256;19.026;2022-08-07T12:06:24;3.28;;;2.25;;
18387;SDS011;9320;50.256;19.026;2022-08-07T12:09:06;4.47;;;2.15;;
18387;SDS011;9320;50.256;19.026;2022-08-07T12:11:44;6.32;;;2.20;;
18387;SDS011;9320;50.256;19.026;2022-08-07T12:14:37;4.30;;;2.20;;
18387;SDS011;9320;50.256;19.026;2022-08-07T12:17:22;4.97;;;2.13;;
18387;SDS011;9320;50.256;19.026;2022-08-07T12:20:02;3.28;;;2.10;;
18387;SDS011;9320;50.256;19.026;2022-08-07T12:23:01;4.22;;;2.30;;
18387;SDS011;9320;50.256;19.026;2022-08-07T12:26:08;4.55;;;2.40;;
18387;SDS011;9320;50.256;19.026;2022-08-07T12:28:58;4.88;;;2.20;;
18387;SDS011;9320;50.256;19.026;2022-08-07T12:31:34;7.97;;;2.78;;
18387;SDS011;9320;50.256;19.026;2022-08-07T12:34:25;5.50;;;2.63;;
18387;SDS011;9320;50.256;19.026;2022-08-07T12:36:55;4.25;;;2.53;;
18387;SDS011;9320;50.256;19.026;2022-08-07T12:39:28;8.32;;;2.90;;
18387;SDS011;9320;50.256;19.026;2022-08-07T12:42:16;5.30;;;2.42;;
18387;SDS011;9320;50.256;19.026;2022-08-07T12:44:53;6.60;;;2.40;;
18387;SDS011;9320;50.256;19.026;2022-08-07T12:47:27;5.93;;;2.35;;
18387;SDS011;9320;50.256;19.026;2022-08-07T12:50:09;5.78;;;2.53;;
18387;SDS011;9320;50.256;19.026;2022-08-07T12:53:03;3.65;;;2.42;;
18387;SDS011;9320;50.256;19.026;2022-08-07T12:55:49;7.60;;;2.50;;
18387;SDS011;9320;50.256;19.026;2022-08-07T12:58:30;4.25;;;2.40;;
18387;SDS011;9320;50.256;19.026;2022-08-07T13:01:05;7.72;;;2.90;;
18387;SDS011;9320;50.256;19.026;2022-08-07T13:03:47;3.20;;;2.63;;
18387;SDS011;9320;50.256;19.026;2022-08-07T13:12:43;5.93;;;2.70;;
18387;SDS011;9320;50.256;19.026;2022-08-07T13:15:31;6.30;;;2.70;;
18387;SDS011;9320;50.256;19.026;2022-08-07T13:18:12;5.88;;;2.65;;
18387;SDS011;9320;50.256;19.026;2022-08-07T13:20:55;5.03;;;2.20;;
18387;SDS011;9320;50.256;19.026;2022-08-07T13:23:31;3.47;;;2.13;;
18387;SDS011;9320;50.256;19.026;2022-08-07T13:26:28;6.88;;;2.10;;
18387;SDS011;9320;50.256;19.026;2022-08-07T13:29:05;3.65;;;2.25;;
18387;SDS011;9320;50.256;19.026;2022-08-07T13:31:39;3.67;;;2.05;;
18387;SDS011;9320;50.256;19.026;2022-08-07T13:34:28;4.78;;;2.25;;
18387;SDS011;9320;50.256;19.026;2022-08-07T13:37:07;4.22;;;2.25;;
18387;SDS011;9320;50.256;19.026;2022-08-07T13:39:48;5.78;;;2.03;;
18387;SDS011;9320;50.256;19.026;2022-08-07T13:42:43;4.00;;;1.90;;
18387;SDS011;9320;50.256;19.026;2022-08-07T13:45:16;5.25;;;1.92;;
18387;SDS011;9320;50.256;19.026;2022-08-07T13:48:06;3.85;;;2.00;;
18387;SDS011;9320;50.256;19.026;2022-08-07T13:50:56;2.78;;;2.03;;
18387;SDS011;9320;50.256;19.026;2022-08-07T13:53:48;3.22;;;1.90;;
18387;SDS011;9320;50.256;19.026;2022-08-07T13:56:27;4.05;;;2.10;;
18387;SDS011;9320;50.256;19.026;2022-08-07T13:59:06;4.55;;;1.90;;
18387;SDS011;9320;50.256;19.026;2022-08-07T14:01:44;5.72;;;2.22;;
18387;SDS011;9320;50.256;19.026;2022-08-07T14:04:30;4.25;;;1.98;;
18387;SDS011;9320;50.256;19.026;2022-08-07T14:07:15;3.88;;;1.90;;
18387;SDS011;9320;50.256;19.026;2022-08-07T14:09:51;3.50;;;2.00;;
18387;SDS011;9320;50.256;19.026;2022-08-07T14:12:43;6.45;;;2.00;;
18387;SDS011;9320;50.256;19.026;2022-08-07T14:15:25;4.63;;;2.20;;
18387;SDS011;9320;50.256;19.026;2022-08-07T14:18:02;4.28;;;2.65;;
18387;SDS011;9320;50.256;19.026;2022-08-07T14:20:58;3.55;;;2.00;;
18387;SDS011;9320;50.256;19.026;2022-08-07T14:23:37;5.50;;;2.25;;
18387;SDS011;9320;50.256;19.026;2022-08-07T14:26:32;4.20;;;1.90;;
18387;SDS011;9320;50.256;19.026;2022-08-07T14:29:07;4.88;;;2.10;;
18387;SDS011;9320;50.256;19.026;2022-08-07T14:31:59;7.70;;;2.30;;
18387;SDS011;9320;50.256;19.026;2022-08-07T14:34:31;5.38;;;2.30;;
18387;SDS011;9320;50.256;19.026;2022-08-07T14:37:12;3.38;;;2.03;;
18387;SDS011;9320;50.256;19.026;2022-08-07T14:39:43;4.82;;;2.60;;
18387;SDS011;9320;50.256;19.026;2022-08-07T14:42:32;5.93;;;2.60;;
18387;SDS011;9320;50.256;19.026;2022-08-07T14:45:26;4.85;;;2.42;;
18387;SDS011;9320;50.256;19.026;2022-08-07T14:48:14;3.78;;;1.77;;
18387;SDS011;9320;50.256;19.026;2022-08-07T14:50:47;2.38;;;1.60;;
18387;SDS011;9320;50.256;19.026;2022-08-07T14:53:18;4.03;;;1.90;;
18387;SDS011;9320;50.256;19.026;2022-08-07T14:56:08;5.55;;;1.77;;
18387;SDS011;9320;50.256;19.026;2022-08-07T14:58:39;3.80;;;1.77;;
18387;SDS011;9320;50.256;19.026;2022-08-07T15:01:17;3.10;;;2.00;;
18387;SDS011;9320;50.256;19.026;2022-08-07T15:03:49;4.60;;;1.88;;
18387;SDS011;9320;50.256;19.026;2022-08-07T15:06:22;3.65;;;2.00;;
18387;SDS011;9320;50.256;19.026;2022-08-07T15:08:51;6.43;;;2.10;;
18387;SDS011;9320;50.256;19.026;2022-08-07T15:11:21;4.18;;;1.90;;
18387;SDS011;9320;50.256;19.026;2022-08-07T15:14:14;3.53;;;2.00;;
18387;SDS011;9320;50.256;19.026;2022-08-07T15:16:48;3.92;;;2.00;;
18387;SDS011;9320;50.256;19.026;2022-08-07T15:19:27;3.45;;;2.05;;
18387;SDS011;9320;50.256;19.026;2022-08-07T15:22:22;5.00;;;2.15;;
18387;SDS011;9320;50.256;19.026;2022-08-07T15:25:13;4.53;;;2.40;;
18387;SDS011;9320;50.256;19.026;2022-08-07T15:27:46;6.57;;;2.35;;
18387;SDS011;9320;50.256;19.026;2022-08-07T15:30:38;5.85;;;2.10;;
18387;SDS011;9320;50.256;19.026;2022-08-07T15:33:26;6.40;;;2.45;;
18387;SDS011;9320;50.256;19.026;2022-08-07T15:36:01;4.68;;;1.88;;
18387;SDS011;9320;50.256;19.026;2022-08-07T15:38:35;3.42;;;2.10;;
18387;SDS011;9320;50.256;19.026;2022-08-07T15:41:25;5.13;;;2.15;;
18387;SDS011;9320;50.256;19.026;2022-08-07T15:44:16;3.13;;;2.00;;
18387;SDS011;9320;50.256;19.026;2022-08-07T15:46:52;3.67;;;1.80;;
18387;SDS011;9320;50.256;19.026;2022-08-07T15:49:29;4.15;;;1.90;;
18387;SDS011;9320;50.256;19.026;2022-08-07T15:52:21;2.75;;;1.70;;
18387;SDS011;9320;50.256;19.026;2022-08-07T15:54:58;6.95;;;2.08;;
18387;SDS011;9320;50.256;19.026;2022-08-07T15:57:34;4.97;;;1.90;;
18387;SDS011;9320;50.256;19.026;2022-08-07T16:00:13;3.50;;;2.00;;
18387;SDS011;9320;50.256;19.026;2022-08-07T16:03:00;3.13;;;1.88;;
18387;SDS011;9320;50.256;19.026;2022-08-07T16:05:31;3.75;;;2.10;;
18387;SDS011;9320;50.256;19.026;2022-08-07T16:08:02;6.25;;;2.17;;
18387;SDS011;9320;50.256;19.026;2022-08-07T16:10:56;7.88;;;2.13;;
18387;SDS011;9320;50.256;19.026;2022-08-07T16:16:40;7.43;;;2.10;;
18387;SDS011;9320;50.256;19.026;2022-08-07T16:19:25;3.20;;;1.50;;
18387;SDS011;9320;50.256;19.026;2022-08-07T16:22:10;5.80;;;1.88;;
18387;SDS011;9320;50.256;19.026;2022-08-07T16:25:27;5.32;;;1.70;;